createdAt,value
2022-10-09T00:01:03.906Z,95540.28
2022-10-09T00:03:32.013Z,95543.53
2022-10-09T00:06:00.102Z,95532.06
2022-10-09T00:08:28.493Z,95550.94
2022-10-09T00:10:56.668Z,95536.59
2022-10-09T00:13:24.914Z,95538.69
2022-10-09T00:15:54.296Z,95545.34
2022-10-09T00:18:22.438Z,95528.94
2022-10-09T00:20:50.438Z,95537.72
2022-10-09T00:23:18.578Z,95528.81
2022-10-09T00:25:54.071Z,95531.56
2022-10-09T00:28:22.902Z,95529.06
2022-10-09T00:30:51.220Z,95523.88
2022-10-09T00:33:21.185Z,95520.78
2022-10-09T00:35:49.466Z,95523.88
2022-10-09T00:38:18.116Z,95523.50
2022-10-09T00:40:46.157Z,95527.75
2022-10-09T00:43:17.604Z,95514.72
2022-10-09T00:45:50.895Z,95521.91
2022-10-09T00:48:21.247Z,95515.44
2022-10-09T00:50:54.023Z,95517.97
2022-10-09T00:53:24.933Z,95509.00
2022-10-09T00:55:53.332Z,95515.25
2022-10-09T00:58:22.999Z,95513.81
2022-10-09T01:00:51.090Z,95513.91
2022-10-09T01:03:20.572Z,95510.81
2022-10-09T01:05:59.011Z,95516.53
2022-10-09T01:08:31.641Z,95509.03
2022-10-09T01:11:06.736Z,95510.00
2022-10-09T01:13:39.925Z,95504.66
2022-10-09T01:16:16.694Z,95506.84
2022-10-09T01:18:53.809Z,95501.19
2022-10-09T01:21:26.860Z,95498.91
2022-10-09T01:24:10.102Z,95493.09
2022-10-09T01:26:58.567Z,95490.56
2022-10-09T01:29:31.056Z,95495.72
2022-10-09T01:32:01.156Z,95489.81
2022-10-09T01:34:30.190Z,95491.69
2022-10-09T01:36:59.436Z,95490.44
2022-10-09T01:39:28.574Z,95481.53
2022-10-09T01:41:58.736Z,95484.38
2022-10-09T01:44:28.746Z,95471.03
2022-10-09T01:46:57.302Z,95488.50
2022-10-09T01:49:42.106Z,95472.09
2022-10-09T01:52:22.847Z,95471.63
2022-10-09T01:55:02.121Z,95474.16
2022-10-09T01:57:40.924Z,95472.56
2022-10-09T02:00:11.825Z,95472.88
2022-10-09T02:02:42.158Z,95472.09
2022-10-09T02:05:12.063Z,95473.84
2022-10-09T02:07:40.201Z,95464.94
2022-10-09T02:10:10.952Z,95467.31
2022-10-09T02:12:44.738Z,95460.00
2022-10-09T02:15:13.357Z,95458.09
2022-10-09T02:17:46.796Z,95462.53
2022-10-09T02:20:21.707Z,95468.13
2022-10-09T02:22:50.848Z,95467.56
2022-10-09T02:25:19.938Z,95465.97
2022-10-09T02:27:49.514Z,95462.31
2022-10-09T02:30:19.075Z,95459.47
2022-10-09T02:32:47.272Z,95459.16
2022-10-09T02:35:15.473Z,95463.75
2022-10-09T02:37:43.427Z,95462.72
2022-10-09T02:40:12.425Z,95465.47
2022-10-09T02:42:40.459Z,95462.03
2022-10-09T02:45:11.266Z,95466.38
2022-10-09T02:47:39.239Z,95468.03
2022-10-09T02:50:08.731Z,95458.34
2022-10-09T02:52:36.729Z,95455.97
2022-10-09T02:55:05.015Z,95458.69
2022-10-09T02:57:32.957Z,95452.88
2022-10-09T03:00:00.944Z,95458.31
2022-10-09T03:02:30.404Z,95441.53
2022-10-09T03:04:58.444Z,95444.25
2022-10-09T03:07:26.380Z,95446.31
2022-10-09T03:09:54.358Z,95442.59
2022-10-09T03:12:22.279Z,95439.75
2022-10-09T03:14:50.276Z,95453.53
2022-10-09T03:17:18.286Z,95451.00
2022-10-09T03:19:47.605Z,95450.53
2022-10-09T03:22:15.568Z,95444.16
2022-10-09T03:24:43.729Z,95451.66
2022-10-09T03:27:11.699Z,95457.38
2022-10-09T03:29:39.704Z,95447.91
2022-10-09T03:32:07.723Z,95456.97
2022-10-09T03:34:35.743Z,95461.84
2022-10-09T03:37:05.209Z,95469.16
2022-10-09T03:39:33.328Z,95466.94
2022-10-09T03:42:01.277Z,95466.25
2022-10-09T03:44:29.344Z,95464.66
2022-10-09T03:46:57.366Z,95469.88
2022-10-09T03:49:25.473Z,95456.22
2022-10-09T03:51:53.455Z,95465.13
2022-10-09T03:54:22.800Z,95466.59
2022-10-09T03:56:50.774Z,95468.03
2022-10-09T03:59:18.754Z,95472.81
2022-10-09T04:01:46.730Z,95467.63
2022-10-09T04:04:15.136Z,95473.91
2022-10-09T04:06:43.335Z,95472.69
2022-10-09T04:09:11.329Z,95469.50
2022-10-09T04:11:40.836Z,95470.63
2022-10-09T04:14:08.859Z,95470.34
2022-10-09T04:16:36.981Z,95465.13
2022-10-09T04:19:04.987Z,95464.22
2022-10-09T04:21:33.968Z,95468.97
2022-10-09T04:24:03.646Z,95462.81
2022-10-09T04:26:31.659Z,95467.09
2022-10-09T04:29:00.992Z,95469.63
2022-10-09T04:31:29.123Z,95473.28
2022-10-09T04:33:57.459Z,95468.59
2022-10-09T04:36:25.644Z,95470.56
2022-10-09T04:38:53.759Z,95472.16
2022-10-09T04:41:21.764Z,95468.97
2022-10-09T04:43:49.786Z,95471.69
2022-10-09T04:46:19.257Z,95469.16
2022-10-09T04:48:48.138Z,95468.69
2022-10-09T04:51:17.234Z,95466.44
2022-10-09T04:53:45.737Z,95471.03
2022-10-09T04:56:16.791Z,95472.63
2022-10-09T04:58:45.629Z,95479.47
2022-10-09T05:01:16.010Z,95468.19
2022-10-09T05:03:45.778Z,95468.50
2022-10-09T05:06:15.240Z,95468.97
2022-10-09T05:08:43.847Z,95468.97
2022-10-09T05:11:14.003Z,95469.63
2022-10-09T05:13:45.833Z,95470.28
2022-10-09T05:16:15.954Z,95463.44
2022-10-09T05:18:47.666Z,95463.75
2022-10-09T05:21:16.316Z,95459.22
2022-10-09T05:23:44.667Z,95453.03
2022-10-09T05:26:14.526Z,95464.22
2022-10-09T05:28:42.658Z,95462.31
2022-10-09T05:31:16.341Z,95464.72
2022-10-09T05:33:45.749Z,95467.56
2022-10-09T05:36:13.752Z,95466.31
2022-10-09T05:38:41.846Z,95464.41
2022-10-09T05:41:12.264Z,95470.09
2022-10-09T05:43:41.791Z,95467.56
2022-10-09T05:46:11.869Z,95467.09
2022-10-09T05:48:41.345Z,95458.50
2022-10-09T05:51:16.059Z,95462.16
2022-10-09T05:53:45.473Z,95466.13
2022-10-09T05:56:15.770Z,95471.84
2022-10-09T05:58:44.983Z,95463.75
2022-10-09T06:01:13.067Z,95464.22
2022-10-09T06:03:41.074Z,95464.84
2022-10-09T06:06:09.851Z,95463.34
2022-10-09T06:08:39.959Z,95472.34
2022-10-09T06:11:15.782Z,95472.34
2022-10-09T06:13:44.441Z,95465.44
2022-10-09T06:16:13.639Z,95467.09
2022-10-09T06:18:46.700Z,95464.59
2022-10-09T06:21:17.293Z,95470.97
2022-10-09T06:23:50.739Z,95470.66
2022-10-09T06:26:19.626Z,95472.00
2022-10-09T06:28:48.178Z,95474.72
2022-10-09T06:31:19.021Z,95478.47
2022-10-09T06:33:48.644Z,95471.16
2022-10-09T06:36:19.029Z,95478.00
2022-10-09T06:38:48.852Z,95481.66
2022-10-09T06:41:18.524Z,95476.78
2022-10-09T06:43:50.356Z,95485.78
2022-10-09T06:46:18.691Z,95494.69
2022-10-09T06:48:46.688Z,95485.78
2022-10-09T06:51:17.225Z,95485.31
2022-10-09T06:53:47.171Z,95488.03
2022-10-09T06:56:17.813Z,95483.91
2022-10-09T06:58:46.754Z,95491.88
2022-10-09T07:01:16.454Z,95487.97
2022-10-09T07:03:46.298Z,95491.72
2022-10-09T07:06:16.835Z,95479.94
2022-10-09T07:08:46.318Z,95490.00
2022-10-09T07:11:17.679Z,95495.94
2022-10-09T07:13:46.189Z,95498.16
2022-10-09T07:16:14.253Z,95490.84
2022-10-09T07:18:42.260Z,95505.69
2022-10-09T07:21:10.958Z,95502.44
2022-10-09T07:23:38.904Z,95496.72
2022-10-09T07:26:12.863Z,95502.31
2022-10-09T07:28:43.304Z,95502.94
2022-10-09T07:31:11.986Z,95502.22
2022-10-09T07:33:41.674Z,95500.31
2022-10-09T07:36:10.680Z,95502.38
2022-10-09T07:38:38.763Z,95496.19
2022-10-09T07:41:09.459Z,95501.44
2022-10-09T07:43:38.325Z,95500.16
2022-10-09T07:46:11.989Z,95496.72
2022-10-09T07:48:40.163Z,95502.94
2022-10-09T07:51:10.804Z,95508.41
2022-10-09T07:53:39.499Z,95511.09
2022-10-09T07:56:07.998Z,95511.50
2022-10-09T07:58:36.058Z,95503.44
2022-10-09T08:01:09.367Z,95503.22
2022-10-09T08:03:38.063Z,95511.88
2022-10-09T08:06:06.763Z,95505.22
2022-10-09T08:08:34.759Z,95508.41
2022-10-09T08:11:09.655Z,95510.16
2022-10-09T08:13:37.697Z,95509.25
2022-10-09T08:16:06.040Z,95500.88
2022-10-09T08:18:36.203Z,95508.88
2022-10-09T08:21:06.503Z,95506.47
2022-10-09T08:23:34.643Z,95505.69
2022-10-09T08:26:02.919Z,95513.34
2022-10-09T08:28:31.378Z,95508.88
2022-10-09T08:30:59.492Z,95514.88
2022-10-09T08:33:27.955Z,95519.72
2022-10-09T08:36:07.827Z,95522.75
2022-10-09T08:38:47.293Z,95521.78
2022-10-09T08:41:27.612Z,95515.19
2022-10-09T08:44:01.708Z,95521.88
2022-10-09T08:46:36.632Z,95516.06
2022-10-09T08:49:05.749Z,95517.66
2022-10-09T08:51:39.677Z,95524.66
2022-10-09T08:54:20.398Z,95525.16
2022-10-09T08:56:50.864Z,95514.81
2022-10-09T08:59:18.970Z,95522.22
2022-10-09T09:01:53.727Z,95526.91
2022-10-09T09:04:36.717Z,95522.13
2022-10-09T09:07:15.733Z,95516.41
2022-10-09T09:09:53.324Z,95520.63
2022-10-09T09:12:30.126Z,95517.97
2022-10-09T09:15:14.319Z,95511.13
2022-10-09T09:17:51.272Z,95515.44
2022-10-09T09:20:25.862Z,95518.38
2022-10-09T09:22:59.038Z,95509.66
2022-10-09T09:25:28.961Z,95507.16
2022-10-09T09:28:03.407Z,95504.72
2022-10-09T09:30:35.628Z,95497.91
2022-10-09T09:33:16.768Z,95492.66
2022-10-09T09:35:53.251Z,95491.13
2022-10-09T09:38:22.648Z,95488.06
2022-10-09T09:40:50.843Z,95497.63
2022-10-09T09:43:21.361Z,95495.53
2022-10-09T09:45:50.255Z,95489.28
2022-10-09T09:48:22.338Z,95485.69
2022-10-09T09:51:10.228Z,95494.19
2022-10-09T09:53:44.603Z,95487.81
2022-10-09T09:56:12.833Z,95495.28
2022-10-09T09:58:46.671Z,95475.78
2022-10-09T10:01:23.687Z,95478.38
2022-10-09T10:03:53.772Z,95484.16
2022-10-09T10:06:25.898Z,95475.22
2022-10-09T10:09:03.489Z,95472.13
2022-10-09T10:11:35.024Z,95487.81
2022-10-09T10:14:07.915Z,95482.06
2022-10-09T10:16:39.102Z,95482.16
2022-10-09T10:19:07.395Z,95477.00
2022-10-09T10:21:42.252Z,95480.47
2022-10-09T10:24:19.347Z,95486.53
2022-10-09T10:26:52.838Z,95482.06
2022-10-09T10:29:24.546Z,95469.31
2022-10-09T10:31:56.736Z,95482.16
2022-10-09T10:34:28.115Z,95477.00
2022-10-09T10:37:03.430Z,95469.44
2022-10-09T10:39:40.794Z,95468.75
2022-10-09T10:42:19.565Z,95464.06
2022-10-09T10:44:53.625Z,95461.47
2022-10-09T10:47:24.876Z,95451.66
2022-10-09T10:49:53.190Z,95449.78
2022-10-09T10:52:35.289Z,95457.22
2022-10-09T10:55:18.033Z,95447.75
2022-10-09T10:57:53.946Z,95443.00
2022-10-09T11:00:22.075Z,95449.16
2022-10-09T11:03:07.530Z,95448.19
2022-10-09T11:05:49.513Z,95438.31
2022-10-09T11:08:38.817Z,95434.75
2022-10-09T11:11:14.094Z,95438.84
2022-10-09T11:13:51.959Z,95434.53
2022-10-09T11:16:36.428Z,95437.50
2022-10-09T11:19:19.601Z,95431.75
2022-10-09T11:22:00.246Z,95431.78
2022-10-09T11:24:55.759Z,95424.91
2022-10-09T11:27:29.174Z,95427.56
2022-10-09T11:30:02.897Z,95426.50
2022-10-09T11:32:35.960Z,95413.38
2022-10-09T11:35:09.200Z,95410.97
2022-10-09T11:37:40.554Z,95401.19
2022-10-09T11:40:16.015Z,95402.88
2022-10-09T11:42:49.199Z,95409.00
2022-10-09T11:45:29.233Z,95408.50
2022-10-09T11:48:06.625Z,95404.56
2022-10-09T11:50:43.571Z,95396.63
2022-10-09T11:53:14.178Z,95407.06
2022-10-09T11:55:42.810Z,95401.19
2022-10-09T11:58:23.613Z,95394.28
2022-10-09T12:00:55.254Z,95391.16
2022-10-09T12:03:33.398Z,95379.69
2022-10-09T12:06:08.105Z,95378.41
2022-10-09T12:08:37.388Z,95383.72
2022-10-09T12:11:15.166Z,95381.41
2022-10-09T12:13:55.739Z,95377.19
2022-10-09T12:16:34.297Z,95368.75
2022-10-09T12:19:05.318Z,95366.66
2022-10-09T12:21:39.092Z,95369.03
2022-10-09T12:24:07.751Z,95365.84
2022-10-09T12:26:37.146Z,95358.66
2022-10-09T12:29:07.608Z,95354.41
2022-10-09T12:31:39.879Z,95355.47
2022-10-09T12:34:19.939Z,95355.41
2022-10-09T12:36:48.015Z,95346.97
2022-10-09T12:39:19.552Z,95349.66
2022-10-09T12:41:50.095Z,95346.53
2022-10-09T12:44:27.630Z,95344.41
2022-10-09T12:46:56.107Z,95339.44
2022-10-09T12:49:26.409Z,95341.84
2022-10-09T12:51:56.747Z,95334.50
2022-10-09T12:54:25.670Z,95334.00
2022-10-09T12:56:55.708Z,95340.00
2022-10-09T12:59:27.409Z,95334.94
2022-10-09T13:01:59.012Z,95329.09
2022-10-09T13:04:31.501Z,95322.81
2022-10-09T13:07:02.446Z,95324.41
2022-10-09T13:09:35.593Z,95325.94
2022-10-09T13:12:08.831Z,95320.16
2022-10-09T13:14:43.906Z,95328.09
2022-10-09T13:17:24.971Z,95323.88
2022-10-09T13:19:53.830Z,95326.72
2022-10-09T13:22:23.435Z,95327.00
2022-10-09T13:24:53.669Z,95318.06
2022-10-09T13:27:22.341Z,95325.16
2022-10-09T13:29:51.995Z,95315.38
2022-10-09T13:32:20.560Z,95304.28
2022-10-09T13:34:48.517Z,95307.19
2022-10-09T13:37:20.118Z,95307.50
2022-10-09T13:39:48.437Z,95310.75
2022-10-09T13:42:17.453Z,95307.06
2022-10-09T13:44:45.528Z,95302.25
2022-10-09T13:47:15.038Z,95306.44
2022-10-09T13:49:43.093Z,95305.13
2022-10-09T13:52:11.183Z,95303.28
2022-10-09T13:54:39.192Z,95302.31
2022-10-09T13:57:07.321Z,95303.38
2022-10-09T13:59:35.396Z,95301.25
2022-10-09T14:02:03.628Z,95300.19
2022-10-09T14:04:33.189Z,95294.66
2022-10-09T14:07:01.132Z,95297.56
2022-10-09T14:09:29.140Z,95293.31
2022-10-09T14:11:57.099Z,95290.16
2022-10-09T14:14:25.043Z,95290.09
2022-10-09T14:16:52.990Z,95290.88
2022-10-09T14:19:26.351Z,95287.97
2022-10-09T14:21:55.868Z,95287.44
2022-10-09T14:24:24.442Z,95290.09
2022-10-09T14:26:52.688Z,95298.53
2022-10-09T14:29:20.656Z,95291.16
2022-10-09T14:31:50.730Z,95290.16
2022-10-09T14:34:18.719Z,95286.97
2022-10-09T14:36:46.942Z,95283.28
2022-10-09T14:39:17.323Z,95283.28
2022-10-09T14:41:45.922Z,95279.63
2022-10-09T14:44:14.136Z,95272.19
2022-10-09T14:46:42.140Z,95282.25
2022-10-09T14:49:11.709Z,95269.59
2022-10-09T14:51:41.832Z,95274.59
2022-10-09T14:54:10.650Z,95283.03
2022-10-09T14:56:40.403Z,95276.97
2022-10-09T14:59:08.423Z,95277.50
2022-10-09T15:01:36.555Z,95279.09
2022-10-09T15:04:05.444Z,95281.75
2022-10-09T15:06:34.363Z,95275.41
2022-10-09T15:09:05.680Z,95271.66
2022-10-09T15:11:35.608Z,95280.91
2022-10-09T15:14:05.765Z,95275.38
2022-10-09T15:16:33.832Z,95274.84
2022-10-09T15:19:02.380Z,95264.78
2022-10-09T15:21:32.407Z,95273.25
2022-10-09T15:24:02.731Z,95270.88
2022-10-09T15:26:33.442Z,95266.41
2022-10-09T15:29:05.502Z,95263.69
2022-10-09T15:31:34.916Z,95260.78
2022-10-09T15:34:03.635Z,95265.34
2022-10-09T15:36:35.155Z,95255.78
2022-10-09T15:39:06.029Z,95251.56
2022-10-09T15:41:35.541Z,95263.16
2022-10-09T15:44:06.268Z,95256.84
2022-10-09T15:46:34.287Z,95254.72
2022-10-09T15:49:02.267Z,95254.19
2022-10-09T15:51:33.127Z,95249.97
2022-10-09T15:54:02.030Z,95252.34
2022-10-09T15:56:30.699Z,95259.44
2022-10-09T15:58:59.780Z,95254.16
2022-10-09T16:01:29.185Z,95256.25
2022-10-09T16:03:58.060Z,95250.44
2022-10-09T16:06:26.072Z,95254.63
2022-10-09T16:08:56.657Z,95246.69
2022-10-09T16:11:26.428Z,95247.22
2022-10-09T16:13:56.226Z,95246.91
2022-10-09T16:16:26.354Z,95245.56
2022-10-09T16:18:56.530Z,95250.78
2022-10-09T16:21:25.923Z,95253.91
2022-10-09T16:23:58.718Z,95251.28
2022-10-09T16:26:29.481Z,95250.78
2022-10-09T16:28:58.007Z,95253.44
2022-10-09T16:31:28.183Z,95244.94
2022-10-09T16:33:58.440Z,95256.41
2022-10-09T16:36:26.491Z,95249.19
2022-10-09T16:38:54.474Z,95253.94
2022-10-09T16:41:24.343Z,95245.19
2022-10-09T16:43:53.940Z,95255.94
2022-10-09T16:46:24.397Z,95258.25
2022-10-09T16:48:54.088Z,95257.97
2022-10-09T16:51:25.145Z,95260.84
2022-10-09T16:53:54.417Z,95253.50
2022-10-09T16:56:24.995Z,95261.38
2022-10-09T16:58:56.411Z,95261.44
2022-10-09T17:01:25.200Z,95268.38
2022-10-09T17:03:54.712Z,95271.81
2022-10-09T17:06:24.732Z,95270.94
2022-10-09T17:08:53.212Z,95270.94
2022-10-09T17:11:22.085Z,95283.16
2022-10-09T17:13:50.092Z,95274.75
2022-10-09T17:16:20.455Z,95285.81
2022-10-09T17:18:49.315Z,95293.47
2022-10-09T17:21:19.238Z,95291.03
2022-10-09T17:23:49.007Z,95293.13
2022-10-09T17:26:19.378Z,95293.66
2022-10-09T17:28:48.678Z,95293.16
2022-10-09T17:31:19.192Z,95298.97
2022-10-09T17:33:48.438Z,95298.16
2022-10-09T17:36:19.045Z,95305.03
2022-10-09T17:38:49.411Z,95303.66
2022-10-09T17:41:19.215Z,95299.88
2022-10-09T17:43:47.240Z,95304.28
2022-10-09T17:46:16.354Z,95306.06
2022-10-09T17:48:48.634Z,95299.03
2022-10-09T17:51:17.935Z,95300.91
2022-10-09T17:53:46.597Z,95302.50
2022-10-09T17:56:16.698Z,95306.19
2022-10-09T17:58:47.432Z,95307.53
2022-10-09T18:01:16.409Z,95310.28
2022-10-09T18:03:45.310Z,95309.75
2022-10-09T18:06:15.066Z,95311.34
2022-10-09T18:08:43.672Z,95305.75
2022-10-09T18:11:14.692Z,95310.72
2022-10-09T18:13:45.067Z,95313.88
2022-10-09T18:16:15.727Z,95313.13
2022-10-09T18:18:44.317Z,95310.75
2022-10-09T18:21:16.891Z,95311.84
2022-10-09T18:23:46.207Z,95313.94
2022-10-09T18:26:16.358Z,95317.91
2022-10-09T18:28:48.382Z,95319.47
2022-10-09T18:31:19.528Z,95316.03
2022-10-09T18:33:48.161Z,95316.53
2022-10-09T18:36:19.715Z,95307.56
2022-10-09T18:38:49.111Z,95307.28
2022-10-09T18:41:17.841Z,95312.56
2022-10-09T18:43:47.565Z,95308.09
2022-10-09T18:46:16.564Z,95313.84
2022-10-09T18:48:45.609Z,95317.03
2022-10-09T18:51:17.783Z,95308.09
2022-10-09T18:53:49.202Z,95313.34
2022-10-09T18:56:20.306Z,95312.25
2022-10-09T18:58:51.772Z,95310.06
2022-10-09T19:01:20.066Z,95312.16
2022-10-09T19:03:50.052Z,95312.16
2022-10-09T19:06:19.149Z,95313.22
2022-10-09T19:08:47.588Z,95305.41
2022-10-09T19:11:15.569Z,95322.78
2022-10-09T19:13:44.396Z,95317.53
2022-10-09T19:16:13.753Z,95323.84
2022-10-09T19:18:41.777Z,95327.00
2022-10-09T19:21:14.009Z,95331.72
2022-10-09T19:23:42.061Z,95330.63
2022-10-09T19:26:10.241Z,95320.59
2022-10-09T19:28:39.292Z,95325.84
2022-10-09T19:31:08.685Z,95323.75
2022-10-09T19:33:39.271Z,95332.22
2022-10-09T19:36:08.331Z,95326.94
2022-10-09T19:38:36.725Z,95330.03
2022-10-09T19:41:06.048Z,95335.78
2022-10-09T19:43:34.871Z,95336.28
2022-10-09T19:46:04.889Z,95336.28
2022-10-09T19:48:33.188Z,95342.09
2022-10-09T19:51:06.861Z,95332.63
2022-10-09T19:53:35.674Z,95333.91
2022-10-09T19:56:09.520Z,95330.72
2022-10-09T19:58:40.679Z,95335.19
2022-10-09T20:01:09.130Z,95330.47
2022-10-09T20:03:37.243Z,95327.84
2022-10-09T20:06:08.547Z,95331.53
2022-10-09T20:08:36.641Z,95343.63
2022-10-09T20:11:05.303Z,95338.38
2022-10-09T20:13:34.749Z,95338.38
2022-10-09T20:16:03.244Z,95338.38
2022-10-09T20:18:31.929Z,95346.78
2022-10-09T20:21:00.350Z,95342.84
2022-10-09T20:23:29.755Z,95336.78
2022-10-09T20:26:02.012Z,95339.97
2022-10-09T20:28:32.509Z,95341.56
2022-10-09T20:31:02.092Z,95350.00
2022-10-09T20:33:30.085Z,95346.81
2022-10-09T20:35:57.997Z,95345.28
2022-10-09T20:38:26.101Z,95346.88
2022-10-09T20:40:55.672Z,95351.09
2022-10-09T20:43:23.644Z,95346.38
2022-10-09T20:45:51.602Z,95342.66
2022-10-09T20:48:19.567Z,95342.59
2022-10-09T20:50:47.660Z,95353.97
2022-10-09T20:53:16.798Z,95357.88
2022-10-09T20:55:44.795Z,95350.84
2022-10-09T20:58:14.129Z,95350.66
2022-10-09T21:00:45.351Z,95351.00
2022-10-09T21:03:13.461Z,95358.38
2022-10-09T21:05:42.810Z,95362.59
2022-10-09T21:08:11.293Z,95360.03
2022-10-09T21:10:43.790Z,95361.59
2022-10-09T21:13:11.855Z,95361.59
2022-10-09T21:15:43.849Z,95361.59
2022-10-09T21:18:12.163Z,95366.06
2022-10-09T21:20:41.343Z,95364.69
2022-10-09T21:23:10.739Z,95371.88
2022-10-09T21:25:39.161Z,95371.44
2022-10-09T21:28:07.377Z,95367.06
2022-10-09T21:30:41.463Z,95362.16
2022-10-09T21:33:11.979Z,95361.41
2022-10-09T21:35:41.319Z,95367.25
2022-10-09T21:38:12.824Z,95363.09
2022-10-09T21:40:40.967Z,95371.53
2022-10-09T21:43:10.609Z,95368.66
2022-10-09T21:45:38.903Z,95373.13
2022-10-09T21:48:08.197Z,95376.31
2022-10-09T21:50:38.123Z,95375.81
2022-10-09T21:53:06.090Z,95377.41
2022-10-09T21:55:34.088Z,95378.19
2022-10-09T21:58:02.101Z,95371.09
2022-10-09T22:00:30.072Z,95381.06
2022-10-09T22:02:58.044Z,95379.50
2022-10-09T22:05:26.011Z,95382.13
2022-10-09T22:07:55.383Z,95373.19
2022-10-09T22:10:23.895Z,95368.97
2022-10-09T22:12:52.268Z,95371.34
2022-10-09T22:15:20.471Z,95377.41
2022-10-09T22:17:48.524Z,95371.34
2022-10-09T22:20:16.559Z,95377.91
2022-10-09T22:22:44.552Z,95386.34
2022-10-09T22:25:13.889Z,95385.25
2022-10-09T22:27:41.886Z,95388.28
2022-10-09T22:30:10.809Z,95392.94
2022-10-09T22:32:38.829Z,95378.94
2022-10-09T22:35:07.647Z,95380.38
2022-10-09T22:37:35.604Z,95384.84
2022-10-09T22:40:03.587Z,95378.72
2022-10-09T22:42:34.439Z,95378.97
2022-10-09T22:45:02.540Z,95379.53
2022-10-09T22:47:30.543Z,95373.22
2022-10-09T22:49:58.491Z,95369.56
2022-10-09T22:52:26.552Z,95376.16
2022-10-09T22:54:55.757Z,95375.19
2022-10-09T22:57:23.738Z,95376.59
2022-10-09T22:59:53.039Z,95374.00
2022-10-09T23:02:21.009Z,95372.50
2022-10-09T23:04:48.961Z,95375.13
2022-10-09T23:07:16.891Z,95370.13
2022-10-09T23:09:44.906Z,95366.91
2022-10-09T23:12:12.859Z,95369.28
2022-10-09T23:14:40.823Z,95363.56
2022-10-09T23:17:10.160Z,95369.41
2022-10-09T23:19:38.451Z,95351.00
2022-10-09T23:22:06.401Z,95359.94
2022-10-09T23:24:34.411Z,95360.47
2022-10-09T23:27:02.395Z,95359.44
2022-10-09T23:29:30.447Z,95346.81
2022-10-09T23:31:58.426Z,95352.63
2022-10-09T23:34:27.757Z,95353.13
2022-10-09T23:36:55.724Z,95352.09
2022-10-09T23:39:23.717Z,95351.53
2022-10-09T23:41:51.685Z,95351.53
2022-10-09T23:44:22.225Z,95350.50
2022-10-09T23:46:50.469Z,95348.91
2022-10-09T23:49:18.552Z,95354.16
2022-10-09T23:51:47.997Z,95348.91
2022-10-09T23:54:16.002Z,95341.00
2022-10-09T23:56:44.049Z,95339.41
2022-10-09T23:59:12.786Z,95334.69
